createdAt,value
2024-02-02T00:05:14.806Z,78.30
2024-02-02T00:09:11.129Z,80.70
2024-02-02T00:13:11.649Z,81.70
2024-02-02T00:20:49.032Z,72.20
2024-02-02T00:24:39.582Z,70.30
2024-02-02T00:28:37.705Z,79.50
2024-02-02T00:32:31.052Z,71.60
2024-02-02T00:36:27.308Z,72.70
2024-02-02T00:40:17.834Z,74.40
2024-02-02T00:48:32.770Z,70.40
2024-02-02T00:52:21.084Z,74.30
2024-02-02T00:56:14.086Z,75.00
2024-02-02T01:00:11.661Z,80.00
2024-02-02T01:04:00.347Z,71.40
2024-02-02T01:07:58.502Z,73.30
2024-02-02T01:11:54.227Z,76.10
2024-02-02T01:20:17.956Z,75.00
2024-02-02T01:24:10.903Z,81.00
2024-02-02T01:28:11.471Z,74.90
2024-02-02T01:32:07.975Z,72.60
2024-02-02T01:35:47.755Z,71.30
2024-02-02T01:39:46.384Z,72.10
2024-02-02T01:43:40.681Z,68.80
2024-02-02T01:47:28.495Z,67.90
2024-02-02T01:56:11.025Z,69.50
2024-02-02T01:59:52.371Z,66.30
2024-02-02T02:03:59.502Z,58.90
2024-02-02T02:07:51.881Z,65.60
2024-02-02T02:15:31.970Z,73.30
2024-02-02T02:19:10.445Z,64.70
2024-02-02T02:22:56.367Z,66.70
2024-02-02T02:26:47.599Z,59.50
2024-02-02T02:30:27.061Z,58.20
2024-02-02T02:34:25.865Z,56.80
2024-02-02T02:37:39.893Z,63.00
2024-02-02T02:41:28.809Z,56.30
2024-02-02T02:44:40.738Z,52.10
2024-02-02T02:47:55.188Z,49.40
2024-02-02T02:51:32.514Z,53.50
2024-02-02T02:55:25.787Z,51.80
2024-02-02T02:59:09.024Z,53.00
2024-02-02T03:02:55.953Z,54.60
2024-02-02T03:06:35.364Z,52.10
2024-02-02T03:10:36.258Z,52.30
2024-02-02T03:14:35.001Z,48.60
2024-02-02T03:18:32.057Z,53.40
2024-02-02T03:22:27.859Z,54.10
2024-02-02T03:26:24.149Z,51.00
2024-02-02T03:30:12.274Z,54.20
2024-02-02T03:34:19.124Z,56.50
2024-02-02T03:38:18.548Z,57.50
2024-02-02T03:42:07.892Z,56.90
2024-02-02T03:45:56.144Z,55.70
2024-02-02T03:49:55.611Z,55.30
2024-02-02T03:53:45.913Z,61.20
2024-02-02T03:57:35.362Z,61.40
2024-02-02T04:01:25.934Z,66.70
2024-02-02T04:05:15.306Z,64.30
2024-02-02T04:09:05.972Z,66.10
2024-02-02T04:12:54.608Z,64.70
2024-02-02T04:16:42.994Z,72.90
2024-02-02T04:20:31.931Z,73.70
2024-02-02T04:24:20.470Z,69.20
2024-02-02T04:28:09.489Z,63.80
2024-02-02T04:31:58.529Z,62.60
2024-02-02T04:35:48.543Z,65.10
2024-02-02T04:39:38.433Z,58.80
2024-02-02T04:43:26.692Z,61.20
2024-02-02T04:47:15.044Z,62.00
2024-02-02T04:50:55.895Z,63.30
2024-02-02T04:54:34.142Z,58.50
2024-02-02T04:58:09.431Z,62.40
2024-02-02T05:01:48.613Z,62.40
2024-02-02T05:05:36.897Z,74.50
2024-02-02T05:09:26.244Z,80.60
2024-02-02T05:13:07.577Z,71.10
2024-02-02T05:16:44.952Z,61.10
2024-02-02T05:20:32.580Z,59.00
2024-02-02T05:24:33.223Z,60.40
2024-02-02T05:28:05.100Z,58.10
2024-02-02T05:31:46.298Z,62.00
2024-02-02T05:35:35.269Z,60.40
2024-02-02T05:39:17.326Z,54.10
2024-02-02T05:43:06.836Z,59.20
2024-02-02T05:46:56.340Z,56.60
2024-02-02T05:50:45.136Z,54.10
2024-02-02T05:53:45.263Z,58.60
2024-02-02T05:57:23.696Z,58.10
2024-02-02T06:00:48.502Z,59.80
2024-02-02T06:04:37.175Z,53.80
2024-02-02T06:08:24.787Z,56.60
2024-02-02T06:12:05.682Z,57.30
2024-02-02T06:15:53.871Z,60.40
2024-02-02T06:19:34.074Z,57.00
2024-02-02T06:23:14.326Z,59.00
2024-02-02T06:26:38.361Z,57.70
2024-02-02T06:30:26.460Z,65.10
2024-02-02T06:33:58.389Z,60.90
2024-02-02T06:37:45.134Z,59.90
2024-02-02T06:41:33.203Z,64.10
2024-02-02T06:44:49.047Z,64.80
2024-02-02T06:48:27.652Z,70.10
2024-02-02T06:51:36.959Z,59.40
2024-02-02T06:55:14.942Z,60.60
2024-02-02T06:58:52.872Z,59.50
2024-02-02T07:02:41.012Z,66.30
2024-02-02T07:06:40.377Z,66.40
2024-02-02T07:10:30.682Z,55.20
2024-02-02T07:14:14.589Z,60.20
2024-02-02T07:18:02.892Z,60.00
2024-02-02T07:21:52.757Z,60.60
2024-02-02T07:25:33.628Z,59.30
2024-02-02T07:29:24.589Z,61.60
2024-02-02T07:33:11.711Z,57.30
2024-02-02T07:36:59.056Z,60.70
2024-02-02T07:40:45.190Z,60.10
2024-02-02T07:44:26.854Z,59.30
2024-02-02T07:48:18.112Z,59.60
2024-02-02T07:51:59.900Z,57.10
2024-02-02T07:55:46.712Z,54.60
2024-02-02T07:59:26.047Z,59.30
2024-02-02T08:03:14.433Z,61.40
2024-02-02T08:07:02.806Z,56.70
2024-02-02T08:10:50.855Z,55.60
2024-02-02T08:14:38.378Z,55.30
2024-02-02T08:18:26.172Z,56.50
2024-02-02T08:21:55.102Z,52.70
2024-02-02T08:25:26.937Z,54.30
2024-02-02T08:29:12.963Z,57.60
2024-02-02T08:32:55.748Z,58.20
2024-02-02T08:36:43.074Z,57.50
2024-02-02T08:40:30.270Z,59.60
2024-02-02T08:44:11.839Z,55.60
2024-02-02T08:47:53.731Z,56.80
2024-02-02T08:51:43.644Z,58.60
2024-02-02T08:54:54.966Z,56.20
2024-02-02T08:58:44.112Z,58.20
2024-02-02T09:02:27.070Z,61.10
2024-02-02T09:06:08.824Z,58.20
2024-02-02T09:09:49.635Z,61.10
2024-02-02T09:13:43.971Z,61.70
2024-02-02T09:17:24.933Z,59.00
2024-02-02T09:21:15.375Z,60.00
2024-02-02T09:25:06.753Z,58.20
2024-02-02T09:29:03.039Z,60.30
2024-02-02T09:32:51.255Z,63.50
2024-02-02T09:36:51.659Z,59.40
2024-02-02T09:40:43.814Z,63.40
2024-02-02T09:45:00.474Z,64.10
2024-02-02T09:49:06.937Z,65.70
2024-02-02T09:53:07.678Z,63.70
2024-02-02T09:57:12.928Z,64.60
2024-02-02T10:01:12.913Z,67.60
2024-02-02T10:05:01.235Z,63.90
2024-02-02T10:08:51.543Z,69.20
2024-02-02T10:12:41.048Z,66.70
2024-02-02T10:16:46.717Z,70.00
2024-02-02T10:20:32.082Z,66.30
2024-02-02T10:24:19.959Z,71.50
2024-02-02T10:27:55.621Z,65.00
2024-02-02T10:31:53.945Z,70.80
2024-02-02T10:35:49.398Z,59.90
2024-02-02T10:39:35.659Z,58.00
2024-02-02T10:43:26.523Z,57.00
2024-02-02T10:47:21.117Z,58.70
2024-02-02T10:51:26.380Z,61.00
2024-02-02T10:55:00.690Z,56.30
2024-02-02T10:58:54.798Z,60.10
2024-02-02T11:02:46.170Z,59.90
2024-02-02T11:06:34.526Z,59.20
2024-02-02T11:10:37.683Z,59.80
2024-02-02T11:14:27.156Z,60.40
2024-02-02T11:18:17.827Z,57.40
2024-02-02T11:22:12.429Z,56.20
2024-02-02T11:25:59.029Z,54.40
2024-02-02T11:30:08.837Z,57.40
2024-02-02T11:33:54.485Z,54.10
2024-02-02T11:37:43.116Z,52.80
2024-02-02T11:41:22.136Z,54.40
2024-02-02T11:45:03.472Z,54.90
2024-02-02T11:48:33.226Z,58.90
2024-02-02T11:52:20.342Z,51.50
2024-02-02T11:56:14.320Z,50.20
2024-02-02T12:00:08.291Z,53.90
2024-02-02T12:04:05.209Z,52.60
2024-02-02T12:07:52.223Z,54.10
2024-02-02T12:11:44.442Z,64.20
2024-02-02T12:15:33.600Z,60.90
2024-02-02T12:18:45.952Z,91.20
2024-02-02T12:22:34.818Z,55.60
2024-02-02T12:26:23.099Z,74.00
2024-02-02T12:30:05.486Z,48.60
2024-02-02T12:33:56.857Z,52.00
2024-02-02T12:37:45.028Z,52.00
2024-02-02T12:41:33.112Z,53.80
2024-02-02T12:45:01.440Z,50.80
2024-02-02T12:48:34.743Z,46.60
2024-02-02T12:52:06.789Z,46.30
2024-02-02T12:55:44.709Z,49.10
2024-02-02T12:59:32.845Z,46.60
2024-02-02T13:03:06.973Z,48.00
2024-02-02T13:06:11.402Z,52.50
2024-02-02T13:10:09.463Z,56.50
2024-02-02T13:14:03.668Z,54.90
2024-02-02T13:17:45.838Z,54.50
2024-02-02T13:20:53.799Z,51.40
2024-02-02T13:23:33.418Z,55.80
2024-02-02T13:26:54.030Z,60.30
2024-02-02T13:30:42.451Z,57.10
2024-02-02T13:34:23.215Z,50.90
2024-02-02T13:38:11.374Z,47.90
2024-02-02T13:41:59.661Z,48.50
2024-02-02T13:45:52.394Z,51.00
2024-02-02T13:49:40.664Z,48.80
2024-02-02T13:53:14.362Z,50.10
2024-02-02T13:57:06.549Z,46.00
2024-02-02T14:00:51.247Z,47.90
2024-02-02T14:04:27.004Z,45.70
2024-02-02T14:08:16.007Z,51.40
2024-02-02T14:11:27.206Z,48.60
2024-02-02T14:14:03.195Z,56.70
2024-02-02T14:17:04.146Z,51.90
2024-02-02T14:19:37.097Z,48.80
2024-02-02T14:22:55.181Z,46.60
2024-02-02T14:26:36.467Z,46.90
2024-02-02T14:29:40.661Z,45.90
2024-02-02T14:32:42.919Z,50.70
2024-02-02T14:36:14.017Z,47.70
2024-02-02T14:39:12.663Z,51.60
2024-02-02T14:41:57.594Z,50.20
2024-02-02T14:44:55.115Z,50.20
2024-02-02T14:47:33.338Z,48.10
2024-02-02T14:50:41.584Z,47.30
2024-02-02T14:53:34.739Z,48.50
2024-02-02T14:56:36.002Z,49.80
2024-02-02T14:59:10.112Z,49.60
2024-02-02T15:01:44.331Z,48.20
2024-02-02T15:04:35.527Z,50.80
2024-02-02T15:07:17.016Z,54.80
2024-02-02T15:10:36.177Z,52.10
2024-02-02T15:13:35.054Z,49.80
2024-02-02T15:17:06.648Z,47.00
2024-02-02T15:20:54.926Z,47.70
2024-02-02T15:24:23.894Z,49.90
2024-02-02T15:28:03.262Z,53.10
2024-02-02T15:31:48.706Z,53.10
2024-02-02T15:35:35.523Z,58.90
2024-02-02T15:39:23.884Z,55.10
2024-02-02T15:42:55.750Z,55.00
2024-02-02T15:45:55.343Z,58.20
2024-02-02T15:48:42.826Z,53.40
2024-02-02T15:51:51.759Z,55.40
2024-02-02T15:54:38.585Z,56.10
2024-02-02T15:58:17.173Z,54.90
2024-02-02T16:01:38.490Z,65.00
2024-02-02T16:04:55.278Z,69.40
2024-02-02T16:08:16.337Z,65.80
2024-02-02T16:12:03.090Z,65.60
2024-02-02T16:15:14.507Z,64.30
2024-02-02T16:18:35.507Z,62.00
2024-02-02T16:21:38.797Z,63.30
2024-02-02T16:24:12.558Z,70.60
2024-02-02T16:27:14.871Z,71.40
2024-02-02T16:30:46.371Z,91.00
2024-02-02T16:33:57.597Z,76.00
2024-02-02T16:37:14.981Z,68.70
2024-02-02T16:40:14.225Z,72.50
2024-02-02T16:46:18.561Z,59.60
2024-02-02T16:49:42.776Z,62.00
2024-02-02T16:53:07.512Z,59.80
2024-02-02T16:56:07.238Z,73.30
2024-02-02T16:59:02.451Z,72.70
2024-02-02T17:02:33.027Z,71.10
2024-02-02T17:06:21.509Z,65.20
2024-02-02T17:09:28.869Z,63.50
2024-02-02T17:12:31.484Z,67.10
2024-02-02T17:15:45.032Z,84.80
2024-02-02T17:18:36.812Z,76.90
2024-02-02T17:21:15.620Z,74.60
2024-02-02T17:24:24.350Z,71.90
2024-02-02T17:28:01.196Z,73.10
2024-02-02T17:31:00.085Z,73.80
2024-02-02T17:34:14.629Z,72.90
2024-02-02T17:37:30.261Z,71.90
2024-02-02T17:40:33.943Z,66.50
2024-02-02T17:44:04.619Z,63.40
2024-02-02T17:46:53.707Z,61.20
2024-02-02T17:50:16.022Z,55.00
2024-02-02T17:53:21.336Z,57.60
2024-02-02T17:57:08.310Z,65.80
2024-02-02T18:00:00.190Z,61.80
2024-02-02T18:02:53.466Z,71.00
2024-02-02T18:05:56.441Z,74.90
2024-02-02T18:08:30.962Z,72.00
2024-02-02T18:11:17.047Z,75.70
2024-02-02T18:14:31.986Z,57.30
2024-02-02T18:17:23.976Z,49.40
2024-02-02T18:20:11.368Z,50.80
2024-02-02T18:23:14.734Z,57.20
2024-02-02T18:26:34.906Z,65.10
2024-02-02T18:30:24.271Z,80.10
2024-02-02T18:34:12.481Z,81.10
2024-02-02T18:37:23.500Z,85.50
2024-02-02T18:40:34.606Z,85.70
2024-02-02T18:44:03.611Z,74.10
2024-02-02T18:47:03.172Z,78.10
2024-02-02T18:49:56.041Z,76.10
2024-02-02T18:53:00.991Z,75.90
2024-02-02T18:56:09.679Z,76.70
2024-02-02T18:59:07.774Z,70.80
2024-02-02T19:02:19.104Z,80.10
2024-02-02T19:05:38.915Z,96.40
2024-02-02T19:08:30.573Z,88.30
2024-02-02T19:11:39.861Z,95.20
2024-02-02T19:14:21.063Z,117.80
2024-02-02T19:17:20.771Z,106.00
2024-02-02T19:20:45.124Z,85.00
2024-02-02T19:23:40.683Z,75.40
2024-02-02T19:27:13.015Z,85.40
2024-02-02T19:30:50.411Z,89.50
2024-02-02T19:33:54.968Z,89.40
2024-02-02T19:37:00.575Z,76.20
2024-02-02T19:40:16.648Z,73.00
2024-02-02T19:43:20.834Z,68.40
2024-02-02T19:46:58.042Z,74.30
2024-02-02T19:50:03.421Z,71.40
2024-02-02T19:53:42.321Z,81.00
2024-02-02T19:56:46.333Z,84.70
2024-02-02T19:59:33.110Z,85.40
2024-02-02T20:02:10.604Z,79.30
2024-02-02T20:05:10.864Z,77.30
2024-02-02T20:08:30.981Z,90.60
2024-02-02T20:12:19.376Z,74.30
2024-02-02T20:15:39.599Z,63.20
2024-02-02T20:18:47.454Z,58.30
2024-02-02T20:22:11.368Z,58.40
2024-02-02T20:25:53.238Z,59.90
2024-02-02T20:29:33.854Z,58.50
2024-02-02T20:33:15.322Z,80.00
2024-02-02T20:36:10.013Z,63.80
2024-02-02T20:39:58.235Z,65.20
2024-02-02T20:43:17.728Z,75.20
2024-02-02T20:46:35.258Z,73.20
2024-02-02T20:50:01.376Z,63.40
2024-02-02T20:53:39.638Z,60.30
2024-02-02T20:57:23.156Z,56.30
2024-02-02T21:01:00.098Z,54.00
2024-02-02T21:04:48.553Z,47.80
2024-02-02T21:08:36.802Z,42.40
2024-02-02T21:12:08.072Z,42.50
2024-02-02T21:15:49.584Z,41.90
2024-02-02T21:19:37.923Z,40.90
2024-02-02T21:23:26.042Z,52.20
2024-02-02T21:27:14.209Z,59.60
2024-02-02T21:30:42.350Z,69.50
2024-02-02T21:34:30.672Z,60.60
2024-02-02T21:38:18.775Z,59.10
2024-02-02T21:42:00.054Z,62.00
2024-02-02T21:45:22.078Z,60.90
2024-02-02T21:49:00.276Z,59.20
2024-02-02T21:52:37.966Z,55.10
2024-02-02T21:56:26.183Z,56.60
2024-02-02T21:59:52.142Z,55.70
2024-02-02T22:03:16.256Z,53.10
2024-02-02T22:06:35.972Z,48.50
2024-02-02T22:09:49.168Z,43.40
2024-02-02T22:13:37.547Z,38.10
2024-02-02T22:17:07.130Z,32.60
2024-02-02T22:20:55.616Z,32.90
2024-02-02T22:24:09.259Z,33.00
2024-02-02T22:27:08.385Z,36.70
2024-02-02T22:30:10.348Z,39.00
2024-02-02T22:33:07.274Z,36.20
2024-02-02T22:36:15.593Z,32.90
2024-02-02T22:39:10.722Z,31.20
2024-02-02T22:42:41.911Z,32.30
2024-02-02T22:45:50.418Z,33.60
2024-02-02T22:49:28.656Z,33.10
2024-02-02T22:52:59.418Z,36.30
2024-02-02T22:56:47.848Z,42.30
2024-02-02T23:00:36.071Z,48.50
2024-02-02T23:04:07.442Z,49.10
2024-02-02T23:07:38.971Z,48.40
2024-02-02T23:10:43.133Z,45.30
2024-02-02T23:14:22.436Z,41.90
2024-02-02T23:17:01.499Z,39.80
2024-02-02T23:19:54.419Z,41.90
2024-02-02T23:23:35.475Z,43.00
2024-02-02T23:27:09.264Z,44.30
2024-02-02T23:30:57.354Z,45.80
2024-02-02T23:34:45.390Z,44.80
2024-02-02T23:38:16.483Z,45.00
2024-02-02T23:41:54.474Z,46.30
2024-02-02T23:45:34.109Z,48.00
2024-02-02T23:48:49.816Z,46.30
2024-02-02T23:52:13.044Z,40.10
2024-02-02T23:55:07.731Z,39.40
2024-02-02T23:57:57.726Z,42.80
